sensor_id;sensor_type;location;lat;lon;timestamp;P1;durP1;ratioP1;P2;durP2;ratioP2
34775;SDS011;20989;52.566;13.346;2022-08-11T00:03:02;0.82;;;0.80;;
34775;SDS011;20989;52.566;13.346;2022-08-11T00:06:06;0.77;;;0.77;;
34775;SDS011;20989;52.566;13.346;2022-08-11T00:09:08;0.57;;;0.57;;
34775;SDS011;20989;52.566;13.346;2022-08-11T00:12:12;0.75;;;0.60;;
34775;SDS011;20989;52.566;13.346;2022-08-11T00:15:14;0.70;;;0.70;;
34775;SDS011;20989;52.566;13.346;2022-08-11T00:18:15;0.60;;;0.60;;
34775;SDS011;20989;52.566;13.346;2022-08-11T00:21:21;0.60;;;0.60;;
34775;SDS011;20989;52.566;13.346;2022-08-11T00:24:23;0.57;;;0.57;;
34775;SDS011;20989;52.566;13.346;2022-08-11T00:27:34;0.63;;;0.57;;
34775;SDS011;20989;52.566;13.346;2022-08-11T00:30:38;0.50;;;0.50;;
34775;SDS011;20989;52.566;13.346;2022-08-11T00:33:42;2.05;;;0.60;;
34775;SDS011;20989;52.566;13.346;2022-08-11T00:39:59;0.63;;;0.60;;
34775;SDS011;20989;52.566;13.346;2022-08-11T00:43:17;0.57;;;0.57;;
34775;SDS011;20989;52.566;13.346;2022-08-11T00:49:29;0.60;;;0.60;;
34775;SDS011;20989;52.566;13.346;2022-08-11T00:53:28;0.60;;;0.60;;
34775;SDS011;20989;52.566;13.346;2022-08-11T00:57:13;0.70;;;0.70;;
34775;SDS011;20989;52.566;13.346;2022-08-11T01:00:21;0.57;;;0.57;;
34775;SDS011;20989;52.566;13.346;2022-08-11T01:07:05;0.47;;;0.47;;
34775;SDS011;20989;52.566;13.346;2022-08-11T01:48:42;0.80;;;0.80;;
34775;SDS011;20989;52.566;13.346;2022-08-11T01:55:52;0.40;;;0.40;;
34775;SDS011;20989;52.566;13.346;2022-08-11T02:11:44;0.60;;;0.60;;
34775;SDS011;20989;52.566;13.346;2022-08-11T02:14:53;0.55;;;0.55;;
34775;SDS011;20989;52.566;13.346;2022-08-11T02:21:23;0.60;;;0.60;;
34775;SDS011;20989;52.566;13.346;2022-08-11T02:24:57;0.63;;;0.63;;
34775;SDS011;20989;52.566;13.346;2022-08-11T02:28:24;0.40;;;0.40;;
34775;SDS011;20989;52.566;13.346;2022-08-11T02:35:02;0.60;;;0.60;;
34775;SDS011;20989;52.566;13.346;2022-08-11T02:38:37;1.10;;;0.70;;
34775;SDS011;20989;52.566;13.346;2022-08-11T02:45:33;0.63;;;0.63;;
34775;SDS011;20989;52.566;13.346;2022-08-11T02:49:17;0.60;;;0.60;;
34775;SDS011;20989;52.566;13.346;2022-08-11T02:56:34;0.70;;;0.70;;
34775;SDS011;20989;52.566;13.346;2022-08-11T03:03:22;0.50;;;0.50;;
34775;SDS011;20989;52.566;13.346;2022-08-11T03:10:21;0.70;;;0.70;;
34775;SDS011;20989;52.566;13.346;2022-08-11T03:13:24;0.50;;;0.50;;
34775;SDS011;20989;52.566;13.346;2022-08-11T03:16:57;0.75;;;0.75;;
34775;SDS011;20989;52.566;13.346;2022-08-11T03:23:55;0.63;;;0.63;;
34775;SDS011;20989;52.566;13.346;2022-08-11T03:30:34;0.60;;;0.60;;
34775;SDS011;20989;52.566;13.346;2022-08-11T03:33:51;0.70;;;0.70;;
34775;SDS011;20989;52.566;13.346;2022-08-11T04:11:16;0.90;;;0.60;;
34775;SDS011;20989;52.566;13.346;2022-08-11T04:14:45;0.57;;;0.57;;
34775;SDS011;20989;52.566;13.346;2022-08-11T04:56:30;0.50;;;0.50;;
34775;SDS011;20989;52.566;13.346;2022-08-11T05:14:45;0.70;;;0.70;;
34775;SDS011;20989;52.566;13.346;2022-08-11T05:18:17;0.60;;;0.60;;
34775;SDS011;20989;52.566;13.346;2022-08-11T05:21:40;0.85;;;0.60;;
34775;SDS011;20989;52.566;13.346;2022-08-11T05:25:05;0.60;;;0.60;;
34775;SDS011;20989;52.566;13.346;2022-08-11T05:28:30;9.57;;;1.60;;
34775;SDS011;20989;52.566;13.346;2022-08-11T05:31:57;12.85;;;3.17;;
34775;SDS011;20989;52.566;13.346;2022-08-11T05:35:18;10.75;;;3.00;;
34775;SDS011;20989;52.566;13.346;2022-08-11T05:38:27;4.63;;;2.00;;
34775;SDS011;20989;52.566;13.346;2022-08-11T05:41:50;2.15;;;1.33;;
34775;SDS011;20989;52.566;13.346;2022-08-11T05:45:16;2.22;;;1.30;;
34775;SDS011;20989;52.566;13.346;2022-08-11T05:48:36;2.40;;;1.63;;
34775;SDS011;20989;52.566;13.346;2022-08-11T05:51:58;4.18;;;1.63;;
34775;SDS011;20989;52.566;13.346;2022-08-11T05:55:20;4.20;;;1.52;;
34775;SDS011;20989;52.566;13.346;2022-08-11T05:58:42;8.93;;;2.22;;
34775;SDS011;20989;52.566;13.346;2022-08-11T06:01:45;8.02;;;2.75;;
34775;SDS011;20989;52.566;13.346;2022-08-11T06:04:52;7.03;;;2.58;;
34775;SDS011;20989;52.566;13.346;2022-08-11T06:07:56;11.23;;;3.40;;
34775;SDS011;20989;52.566;13.346;2022-08-11T06:11:00;15.05;;;3.70;;
34775;SDS011;20989;52.566;13.346;2022-08-11T06:14:04;7.43;;;3.53;;
34775;SDS011;20989;52.566;13.346;2022-08-11T06:17:06;4.28;;;3.38;;
34775;SDS011;20989;52.566;13.346;2022-08-11T06:20:07;7.97;;;3.65;;
34775;SDS011;20989;52.566;13.346;2022-08-11T06:23:11;11.90;;;3.97;;
34775;SDS011;20989;52.566;13.346;2022-08-11T06:26:14;7.10;;;3.90;;
34775;SDS011;20989;52.566;13.346;2022-08-11T06:29:15;6.95;;;3.60;;
34775;SDS011;20989;52.566;13.346;2022-08-11T06:32:17;9.80;;;3.78;;
34775;SDS011;20989;52.566;13.346;2022-08-11T06:35:20;6.68;;;4.05;;
34775;SDS011;20989;52.566;13.346;2022-08-11T06:38:38;5.07;;;3.97;;
34775;SDS011;20989;52.566;13.346;2022-08-11T06:41:53;9.85;;;4.13;;
34775;SDS011;20989;52.566;13.346;2022-08-11T06:48:25;11.25;;;3.45;;
34775;SDS011;20989;52.566;13.346;2022-08-11T06:51:26;17.85;;;4.32;;
34775;SDS011;20989;52.566;13.346;2022-08-11T06:54:28;5.95;;;3.15;;
34775;SDS011;20989;52.566;13.346;2022-08-11T06:57:32;6.22;;;3.10;;
34775;SDS011;20989;52.566;13.346;2022-08-11T07:00:54;8.80;;;3.60;;
34775;SDS011;20989;52.566;13.346;2022-08-11T07:04:02;9.13;;;3.17;;
34775;SDS011;20989;52.566;13.346;2022-08-11T07:14:31;6.85;;;3.05;;
34775;SDS011;20989;52.566;13.346;2022-08-11T07:17:52;5.97;;;3.85;;
34775;SDS011;20989;52.566;13.346;2022-08-11T07:24:48;5.57;;;2.88;;
34775;SDS011;20989;52.566;13.346;2022-08-11T07:28:21;7.25;;;2.85;;
34775;SDS011;20989;52.566;13.346;2022-08-11T07:31:47;4.40;;;3.25;;
34775;SDS011;20989;52.566;13.346;2022-08-11T07:34:57;7.65;;;3.00;;
34775;SDS011;20989;52.566;13.346;2022-08-11T07:38:05;4.75;;;2.88;;
34775;SDS011;20989;52.566;13.346;2022-08-11T07:41:11;6.07;;;3.47;;
34775;SDS011;20989;52.566;13.346;2022-08-11T07:44:14;6.13;;;2.80;;
34775;SDS011;20989;52.566;13.346;2022-08-11T07:47:16;2.90;;;2.40;;
34775;SDS011;20989;52.566;13.346;2022-08-11T07:50:39;5.22;;;2.58;;
34775;SDS011;20989;52.566;13.346;2022-08-11T07:54:00;3.65;;;2.47;;
34775;SDS011;20989;52.566;13.346;2022-08-11T07:57:04;3.63;;;2.45;;
34775;SDS011;20989;52.566;13.346;2022-08-11T08:00:26;2.35;;;2.15;;
34775;SDS011;20989;52.566;13.346;2022-08-11T08:03:45;6.05;;;2.40;;
34775;SDS011;20989;52.566;13.346;2022-08-11T08:07:05;5.80;;;2.85;;
34775;SDS011;20989;52.566;13.346;2022-08-11T08:10:24;11.10;;;2.83;;
34775;SDS011;20989;52.566;13.346;2022-08-11T08:13:43;8.27;;;2.67;;
34775;SDS011;20989;52.566;13.346;2022-08-11T08:17:03;8.40;;;2.67;;
34775;SDS011;20989;52.566;13.346;2022-08-11T08:20:24;3.22;;;2.25;;
34775;SDS011;20989;52.566;13.346;2022-08-11T08:23:27;3.03;;;2.70;;
34775;SDS011;20989;52.566;13.346;2022-08-11T08:26:34;4.57;;;2.60;;
34775;SDS011;20989;52.566;13.346;2022-08-11T08:29:54;7.97;;;2.45;;
34775;SDS011;20989;52.566;13.346;2022-08-11T08:33:22;4.28;;;3.00;;
34775;SDS011;20989;52.566;13.346;2022-08-11T08:36:28;5.20;;;2.45;;
34775;SDS011;20989;52.566;13.346;2022-08-11T08:39:28;2.83;;;2.50;;
34775;SDS011;20989;52.566;13.346;2022-08-11T08:42:34;3.13;;;2.03;;
34775;SDS011;20989;52.566;13.346;2022-08-11T08:45:40;4.45;;;2.75;;
34775;SDS011;20989;52.566;13.346;2022-08-11T08:48:42;2.30;;;2.00;;
34775;SDS011;20989;52.566;13.346;2022-08-11T08:51:46;2.40;;;2.20;;
34775;SDS011;20989;52.566;13.346;2022-08-11T08:54:53;2.35;;;2.13;;
34775;SDS011;20989;52.566;13.346;2022-08-11T08:57:56;3.53;;;2.17;;
34775;SDS011;20989;52.566;13.346;2022-08-11T09:00:59;2.00;;;1.90;;
34775;SDS011;20989;52.566;13.346;2022-08-11T09:04:00;4.00;;;2.42;;
34775;SDS011;20989;52.566;13.346;2022-08-11T09:07:07;2.47;;;2.28;;
34775;SDS011;20989;52.566;13.346;2022-08-11T09:10:11;2.45;;;2.25;;
34775;SDS011;20989;52.566;13.346;2022-08-11T09:13:16;2.30;;;2.08;;
34775;SDS011;20989;52.566;13.346;2022-08-11T09:16:17;1.95;;;1.85;;
34775;SDS011;20989;52.566;13.346;2022-08-11T09:19:19;2.92;;;2.17;;
34775;SDS011;20989;52.566;13.346;2022-08-11T09:22:20;1.83;;;1.73;;
34775;SDS011;20989;52.566;13.346;2022-08-11T09:25:40;2.92;;;2.30;;
34775;SDS011;20989;52.566;13.346;2022-08-11T09:29:00;2.28;;;2.00;;
34775;SDS011;20989;52.566;13.346;2022-08-11T09:32:03;2.30;;;2.20;;
34775;SDS011;20989;52.566;13.346;2022-08-11T09:35:07;2.15;;;1.95;;
34775;SDS011;20989;52.566;13.346;2022-08-11T09:38:09;1.88;;;1.77;;
34775;SDS011;20989;52.566;13.346;2022-08-11T09:41:31;2.00;;;1.90;;
34775;SDS011;20989;52.566;13.346;2022-08-11T09:44:33;3.05;;;2.08;;
34775;SDS011;20989;52.566;13.346;2022-08-11T09:47:49;1.80;;;1.70;;
34775;SDS011;20989;52.566;13.346;2022-08-11T09:50:53;1.80;;;1.70;;
34775;SDS011;20989;52.566;13.346;2022-08-11T09:54:01;1.65;;;1.55;;
34775;SDS011;20989;52.566;13.346;2022-08-11T09:57:06;2.45;;;2.15;;
34775;SDS011;20989;52.566;13.346;2022-08-11T10:00:30;2.08;;;1.73;;
34775;SDS011;20989;52.566;13.346;2022-08-11T10:03:37;1.77;;;1.67;;
34775;SDS011;20989;52.566;13.346;2022-08-11T10:06:42;1.83;;;1.73;;
34775;SDS011;20989;52.566;13.346;2022-08-11T10:10:02;2.10;;;1.70;;
34775;SDS011;20989;52.566;13.346;2022-08-11T10:13:08;2.40;;;2.20;;
34775;SDS011;20989;52.566;13.346;2022-08-11T10:16:13;1.80;;;1.70;;
34775;SDS011;20989;52.566;13.346;2022-08-11T10:19:16;1.90;;;1.80;;
34775;SDS011;20989;52.566;13.346;2022-08-11T10:22:21;1.77;;;1.67;;
34775;SDS011;20989;52.566;13.346;2022-08-11T10:25:40;2.00;;;1.90;;
34775;SDS011;20989;52.566;13.346;2022-08-11T10:29:00;1.90;;;1.80;;
34775;SDS011;20989;52.566;13.346;2022-08-11T10:32:02;1.73;;;1.63;;
34775;SDS011;20989;52.566;13.346;2022-08-11T10:35:23;1.58;;;1.42;;
34775;SDS011;20989;52.566;13.346;2022-08-11T10:38:25;1.75;;;1.65;;
34775;SDS011;20989;52.566;13.346;2022-08-11T10:41:27;1.73;;;1.63;;
34775;SDS011;20989;52.566;13.346;2022-08-11T10:44:49;1.85;;;1.75;;
34775;SDS011;20989;52.566;13.346;2022-08-11T10:47:53;1.55;;;1.45;;
34775;SDS011;20989;52.566;13.346;2022-08-11T10:50:55;2.42;;;1.60;;
34775;SDS011;20989;52.566;13.346;2022-08-11T10:54:13;1.75;;;1.65;;
34775;SDS011;20989;52.566;13.346;2022-08-11T10:57:33;1.67;;;1.58;;
34775;SDS011;20989;52.566;13.346;2022-08-11T11:00:52;1.77;;;1.50;;
34775;SDS011;20989;52.566;13.346;2022-08-11T11:03:59;1.85;;;1.60;;
34775;SDS011;20989;52.566;13.346;2022-08-11T11:07:05;1.75;;;1.40;;
34775;SDS011;20989;52.566;13.346;2022-08-11T11:10:12;3.45;;;1.58;;
34775;SDS011;20989;52.566;13.346;2022-08-11T11:13:13;1.70;;;1.60;;
34775;SDS011;20989;52.566;13.346;2022-08-11T11:16:36;1.70;;;1.60;;
34775;SDS011;20989;52.566;13.346;2022-08-11T11:19:49;2.60;;;1.70;;
34775;SDS011;20989;52.566;13.346;2022-08-11T11:22:55;1.50;;;1.40;;
34775;SDS011;20989;52.566;13.346;2022-08-11T11:33:01;1.50;;;1.40;;
34775;SDS011;20989;52.566;13.346;2022-08-11T11:39:28;1.60;;;1.50;;
34775;SDS011;20989;52.566;13.346;2022-08-11T11:42:31;1.70;;;1.60;;
34775;SDS011;20989;52.566;13.346;2022-08-11T11:45:32;1.70;;;1.60;;
34775;SDS011;20989;52.566;13.346;2022-08-11T11:48:33;3.53;;;1.60;;
34775;SDS011;20989;52.566;13.346;2022-08-11T11:51:35;2.33;;;1.42;;
34775;SDS011;20989;52.566;13.346;2022-08-11T11:54:37;1.65;;;1.55;;
34775;SDS011;20989;52.566;13.346;2022-08-11T11:57:39;1.85;;;1.52;;
34775;SDS011;20989;52.566;13.346;2022-08-11T12:01:00;2.70;;;1.30;;
34775;SDS011;20989;52.566;13.346;2022-08-11T12:04:18;4.40;;;1.30;;
34775;SDS011;20989;52.566;13.346;2022-08-11T12:07:20;1.42;;;1.40;;
34775;SDS011;20989;52.566;13.346;2022-08-11T12:14:23;3.22;;;1.25;;
34775;SDS011;20989;52.566;13.346;2022-08-11T12:17:27;3.70;;;1.23;;
34775;SDS011;20989;52.566;13.346;2022-08-11T12:20:28;1.30;;;1.20;;
34775;SDS011;20989;52.566;13.346;2022-08-11T12:23:31;1.48;;;1.38;;
34775;SDS011;20989;52.566;13.346;2022-08-11T12:26:52;1.25;;;1.15;;
34775;SDS011;20989;52.566;13.346;2022-08-11T12:30:11;1.48;;;1.15;;
34775;SDS011;20989;52.566;13.346;2022-08-11T12:33:12;1.55;;;1.45;;
34775;SDS011;20989;52.566;13.346;2022-08-11T12:36:13;4.22;;;1.90;;
34775;SDS011;20989;52.566;13.346;2022-08-11T12:39:16;1.58;;;1.48;;
34775;SDS011;20989;52.566;13.346;2022-08-11T12:42:41;1.35;;;1.30;;
34775;SDS011;20989;52.566;13.346;2022-08-11T12:46:09;2.10;;;1.85;;
34775;SDS011;20989;52.566;13.346;2022-08-11T12:49:18;1.55;;;1.30;;
34775;SDS011;20989;52.566;13.346;2022-08-11T12:52:42;3.22;;;1.33;;
34775;SDS011;20989;52.566;13.346;2022-08-11T12:55:54;1.52;;;1.42;;
34775;SDS011;20989;52.566;13.346;2022-08-11T12:59:17;1.73;;;1.20;;
34775;SDS011;20989;52.566;13.346;2022-08-11T13:02:36;1.55;;;1.45;;
34775;SDS011;20989;52.566;13.346;2022-08-11T13:05:59;1.33;;;1.23;;
34775;SDS011;20989;52.566;13.346;2022-08-11T13:09:02;2.95;;;1.42;;
34775;SDS011;20989;52.566;13.346;2022-08-11T13:12:03;3.55;;;1.35;;
34775;SDS011;20989;52.566;13.346;2022-08-11T13:15:23;1.75;;;1.30;;
34775;SDS011;20989;52.566;13.346;2022-08-11T13:18:25;1.33;;;1.02;;
34775;SDS011;20989;52.566;13.346;2022-08-11T13:21:26;1.27;;;1.20;;
34775;SDS011;20989;52.566;13.346;2022-08-11T13:24:28;1.20;;;1.20;;
34775;SDS011;20989;52.566;13.346;2022-08-11T13:27:33;1.30;;;1.20;;
34775;SDS011;20989;52.566;13.346;2022-08-11T13:30:34;2.08;;;1.10;;
34775;SDS011;20989;52.566;13.346;2022-08-11T13:33:54;1.98;;;1.52;;
34775;SDS011;20989;52.566;13.346;2022-08-11T13:36:57;2.90;;;1.08;;
34775;SDS011;20989;52.566;13.346;2022-08-11T13:40:00;1.77;;;1.17;;
34775;SDS011;20989;52.566;13.346;2022-08-11T13:43:02;1.17;;;1.08;;
34775;SDS011;20989;52.566;13.346;2022-08-11T13:46:02;1.15;;;1.00;;
34775;SDS011;20989;52.566;13.346;2022-08-11T13:49:20;1.50;;;1.40;;
34775;SDS011;20989;52.566;13.346;2022-08-11T13:52:21;1.10;;;1.10;;
34775;SDS011;20989;52.566;13.346;2022-08-11T13:55:22;2.58;;;1.15;;
34775;SDS011;20989;52.566;13.346;2022-08-11T13:58:23;1.30;;;1.25;;
34775;SDS011;20989;52.566;13.346;2022-08-11T14:01:25;1.25;;;1.20;;
34775;SDS011;20989;52.566;13.346;2022-08-11T14:04:52;2.90;;;1.45;;
34775;SDS011;20989;52.566;13.346;2022-08-11T14:07:51;1.30;;;1.20;;
34775;SDS011;20989;52.566;13.346;2022-08-11T14:10:54;0.90;;;0.90;;
34775;SDS011;20989;52.566;13.346;2022-08-11T14:14:20;1.08;;;1.08;;
34775;SDS011;20989;52.566;13.346;2022-08-11T14:17:24;1.55;;;1.45;;
34775;SDS011;20989;52.566;13.346;2022-08-11T14:20:25;3.08;;;1.92;;
34775;SDS011;20989;52.566;13.346;2022-08-11T14:23:49;2.85;;;2.08;;
34775;SDS011;20989;52.566;13.346;2022-08-11T14:26:58;5.57;;;2.05;;
34775;SDS011;20989;52.566;13.346;2022-08-11T14:29:59;3.92;;;1.73;;
34775;SDS011;20989;52.566;13.346;2022-08-11T14:33:01;2.53;;;1.73;;
34775;SDS011;20989;52.566;13.346;2022-08-11T14:36:02;2.05;;;1.77;;
34775;SDS011;20989;52.566;13.346;2022-08-11T14:39:08;6.88;;;2.00;;
34775;SDS011;20989;52.566;13.346;2022-08-11T14:42:12;4.75;;;1.77;;
34775;SDS011;20989;52.566;13.346;2022-08-11T14:45:34;6.57;;;1.48;;
34775;SDS011;20989;52.566;13.346;2022-08-11T14:48:54;2.28;;;2.00;;
34775;SDS011;20989;52.566;13.346;2022-08-11T14:51:56;4.47;;;2.13;;
34775;SDS011;20989;52.566;13.346;2022-08-11T14:54:57;10.60;;;1.60;;
34775;SDS011;20989;52.566;13.346;2022-08-11T14:58:17;5.35;;;2.05;;
34775;SDS011;20989;52.566;13.346;2022-08-11T15:01:19;7.70;;;2.45;;
34775;SDS011;20989;52.566;13.346;2022-08-11T15:04:38;3.30;;;2.08;;
34775;SDS011;20989;52.566;13.346;2022-08-11T15:07:39;8.63;;;2.25;;
34775;SDS011;20989;52.566;13.346;2022-08-11T15:10:41;5.60;;;1.70;;
34775;SDS011;20989;52.566;13.346;2022-08-11T15:13:42;3.00;;;2.67;;
34775;SDS011;20989;52.566;13.346;2022-08-11T15:16:43;2.55;;;1.98;;
34775;SDS011;20989;52.566;13.346;2022-08-11T15:20:05;5.85;;;3.10;;
34775;SDS011;20989;52.566;13.346;2022-08-11T15:23:28;5.35;;;2.30;;
34775;SDS011;20989;52.566;13.346;2022-08-11T15:26:48;5.18;;;2.22;;
34775;SDS011;20989;52.566;13.346;2022-08-11T15:30:08;4.75;;;2.20;;
34775;SDS011;20989;52.566;13.346;2022-08-11T15:33:28;7.43;;;1.98;;
34775;SDS011;20989;52.566;13.346;2022-08-11T15:36:49;3.25;;;1.77;;
34775;SDS011;20989;52.566;13.346;2022-08-11T15:40:21;4.13;;;1.60;;
34775;SDS011;20989;52.566;13.346;2022-08-11T15:43:43;15.07;;;2.17;;
34775;SDS011;20989;52.566;13.346;2022-08-11T15:47:07;15.30;;;2.20;;
34775;SDS011;20989;52.566;13.346;2022-08-11T15:50:09;7.65;;;1.50;;
34775;SDS011;20989;52.566;13.346;2022-08-11T15:56:23;6.15;;;1.60;;
34775;SDS011;20989;52.566;13.346;2022-08-11T15:59:27;3.25;;;1.60;;
34775;SDS011;20989;52.566;13.346;2022-08-11T16:02:54;7.13;;;1.55;;
34775;SDS011;20989;52.566;13.346;2022-08-11T16:06:15;9.52;;;1.30;;
34775;SDS011;20989;52.566;13.346;2022-08-11T16:09:39;6.75;;;1.73;;
34775;SDS011;20989;52.566;13.346;2022-08-11T16:12:41;2.15;;;1.58;;
34775;SDS011;20989;52.566;13.346;2022-08-11T16:16:06;4.07;;;1.95;;
34775;SDS011;20989;52.566;13.346;2022-08-11T16:19:15;4.05;;;1.60;;
34775;SDS011;20989;52.566;13.346;2022-08-11T16:22:20;1.48;;;1.30;;
34775;SDS011;20989;52.566;13.346;2022-08-11T16:25:34;3.05;;;1.48;;
34775;SDS011;20989;52.566;13.346;2022-08-11T16:28:35;2.60;;;1.10;;
34775;SDS011;20989;52.566;13.346;2022-08-11T16:31:39;18.88;;;2.33;;
34775;SDS011;20989;52.566;13.346;2022-08-11T16:34:46;3.92;;;1.92;;
34775;SDS011;20989;52.566;13.346;2022-08-11T16:38:10;8.50;;;1.70;;
34775;SDS011;20989;52.566;13.346;2022-08-11T16:41:32;5.43;;;1.67;;
34775;SDS011;20989;52.566;13.346;2022-08-11T16:44:54;1.70;;;1.25;;
34775;SDS011;20989;52.566;13.346;2022-08-11T16:48:25;7.13;;;1.45;;
34775;SDS011;20989;52.566;13.346;2022-08-11T16:51:29;7.53;;;1.70;;
34775;SDS011;20989;52.566;13.346;2022-08-11T16:54:31;1.35;;;1.20;;
34775;SDS011;20989;52.566;13.346;2022-08-11T16:57:33;9.32;;;1.33;;
34775;SDS011;20989;52.566;13.346;2022-08-11T17:00:53;5.57;;;1.70;;
34775;SDS011;20989;52.566;13.346;2022-08-11T17:03:59;9.93;;;2.05;;
34775;SDS011;20989;52.566;13.346;2022-08-11T17:07:25;4.18;;;1.27;;
34775;SDS011;20989;52.566;13.346;2022-08-11T17:10:47;7.57;;;1.30;;
34775;SDS011;20989;52.566;13.346;2022-08-11T17:14:10;9.80;;;1.33;;
34775;SDS011;20989;52.566;13.346;2022-08-11T17:17:20;3.45;;;1.58;;
34775;SDS011;20989;52.566;13.346;2022-08-11T17:20:25;10.27;;;4.93;;
34775;SDS011;20989;52.566;13.346;2022-08-11T17:23:28;15.18;;;8.57;;
34775;SDS011;20989;52.566;13.346;2022-08-11T17:26:49;7.78;;;3.35;;
34775;SDS011;20989;52.566;13.346;2022-08-11T17:29:58;16.38;;;5.85;;
34775;SDS011;20989;52.566;13.346;2022-08-11T17:33:02;12.48;;;4.43;;
34775;SDS011;20989;52.566;13.346;2022-08-11T17:36:23;11.35;;;5.22;;
34775;SDS011;20989;52.566;13.346;2022-08-11T17:39:26;7.47;;;4.53;;
34775;SDS011;20989;52.566;13.346;2022-08-11T17:42:29;12.82;;;4.43;;
34775;SDS011;20989;52.566;13.346;2022-08-11T17:45:49;10.35;;;4.47;;
34775;SDS011;20989;52.566;13.346;2022-08-11T17:49:10;7.18;;;3.45;;
34775;SDS011;20989;52.566;13.346;2022-08-11T17:52:11;11.25;;;3.92;;
34775;SDS011;20989;52.566;13.346;2022-08-11T17:55:32;10.70;;;3.33;;
34775;SDS011;20989;52.566;13.346;2022-08-11T17:58:55;13.40;;;3.60;;
34775;SDS011;20989;52.566;13.346;2022-08-11T18:02:16;5.50;;;2.63;;
34775;SDS011;20989;52.566;13.346;2022-08-11T18:05:41;4.90;;;2.25;;
34775;SDS011;20989;52.566;13.346;2022-08-11T18:08:45;2.97;;;2.03;;
34775;SDS011;20989;52.566;13.346;2022-08-11T18:12:05;6.63;;;2.17;;
34775;SDS011;20989;52.566;13.346;2022-08-11T18:15:26;3.13;;;2.45;;
34775;SDS011;20989;52.566;13.346;2022-08-11T18:18:47;7.70;;;2.33;;
34775;SDS011;20989;52.566;13.346;2022-08-11T18:22:14;5.45;;;2.38;;
34775;SDS011;20989;52.566;13.346;2022-08-11T18:25:38;6.65;;;2.25;;
34775;SDS011;20989;52.566;13.346;2022-08-11T18:28:59;4.80;;;2.22;;
34775;SDS011;20989;52.566;13.346;2022-08-11T18:32:21;3.75;;;2.13;;
34775;SDS011;20989;52.566;13.346;2022-08-11T18:35:41;3.47;;;1.77;;
34775;SDS011;20989;52.566;13.346;2022-08-11T18:39:01;8.68;;;1.95;;
34775;SDS011;20989;52.566;13.346;2022-08-11T18:42:23;4.22;;;2.25;;
34775;SDS011;20989;52.566;13.346;2022-08-11T18:45:45;3.50;;;1.90;;
34775;SDS011;20989;52.566;13.346;2022-08-11T18:49:07;4.72;;;1.70;;
34775;SDS011;20989;52.566;13.346;2022-08-11T18:52:31;2.90;;;1.83;;
34775;SDS011;20989;52.566;13.346;2022-08-11T18:55:52;2.10;;;2.00;;
34775;SDS011;20989;52.566;13.346;2022-08-11T18:59:12;1.80;;;1.70;;
34775;SDS011;20989;52.566;13.346;2022-08-11T19:02:35;2.30;;;2.10;;
34775;SDS011;20989;52.566;13.346;2022-08-11T19:05:57;1.80;;;1.58;;
34775;SDS011;20989;52.566;13.346;2022-08-11T19:09:19;2.03;;;1.75;;
34775;SDS011;20989;52.566;13.346;2022-08-11T19:12:39;2.72;;;1.73;;
34775;SDS011;20989;52.566;13.346;2022-08-11T19:16:00;2.30;;;1.70;;
34775;SDS011;20989;52.566;13.346;2022-08-11T19:19:21;2.47;;;1.75;;
34775;SDS011;20989;52.566;13.346;2022-08-11T19:22:42;2.10;;;1.50;;
34775;SDS011;20989;52.566;13.346;2022-08-11T19:26:03;2.15;;;1.52;;
34775;SDS011;20989;52.566;13.346;2022-08-11T19:29:23;3.08;;;1.50;;
34775;SDS011;20989;52.566;13.346;2022-08-11T19:32:44;1.60;;;1.48;;
34775;SDS011;20989;52.566;13.346;2022-08-11T19:36:04;2.53;;;1.65;;
34775;SDS011;20989;52.566;13.346;2022-08-11T19:39:25;1.95;;;1.85;;
34775;SDS011;20989;52.566;13.346;2022-08-11T19:42:45;1.60;;;1.50;;
34775;SDS011;20989;52.566;13.346;2022-08-11T19:46:06;2.05;;;1.25;;
34775;SDS011;20989;52.566;13.346;2022-08-11T19:49:27;2.17;;;1.60;;
34775;SDS011;20989;52.566;13.346;2022-08-11T19:52:46;1.40;;;1.30;;
34775;SDS011;20989;52.566;13.346;2022-08-11T19:56:06;1.60;;;1.40;;
34775;SDS011;20989;52.566;13.346;2022-08-11T19:59:27;1.63;;;1.50;;
34775;SDS011;20989;52.566;13.346;2022-08-11T20:02:48;2.53;;;1.55;;
34775;SDS011;20989;52.566;13.346;2022-08-11T20:06:07;1.75;;;1.42;;
34775;SDS011;20989;52.566;13.346;2022-08-11T20:09:28;1.52;;;1.42;;
34775;SDS011;20989;52.566;13.346;2022-08-11T20:12:48;2.40;;;1.70;;
34775;SDS011;20989;52.566;13.346;2022-08-11T20:16:09;3.67;;;1.50;;
34775;SDS011;20989;52.566;13.346;2022-08-11T20:19:31;1.45;;;1.35;;
34775;SDS011;20989;52.566;13.346;2022-08-11T20:22:56;1.90;;;1.33;;
34775;SDS011;20989;52.566;13.346;2022-08-11T20:26:19;2.15;;;1.85;;
34775;SDS011;20989;52.566;13.346;2022-08-11T20:29:39;1.50;;;1.40;;
34775;SDS011;20989;52.566;13.346;2022-08-11T20:32:59;1.20;;;1.13;;
34775;SDS011;20989;52.566;13.346;2022-08-11T20:36:19;2.75;;;1.55;;
34775;SDS011;20989;52.566;13.346;2022-08-11T20:39:39;1.40;;;1.17;;
34775;SDS011;20989;52.566;13.346;2022-08-11T20:43:01;1.52;;;1.42;;
34775;SDS011;20989;52.566;13.346;2022-08-11T20:46:21;1.30;;;1.20;;
34775;SDS011;20989;52.566;13.346;2022-08-11T20:49:42;1.45;;;1.08;;
34775;SDS011;20989;52.566;13.346;2022-08-11T20:53:04;1.17;;;1.10;;
34775;SDS011;20989;52.566;13.346;2022-08-11T20:56:26;1.55;;;1.45;;
34775;SDS011;20989;52.566;13.346;2022-08-11T20:59:47;1.92;;;1.52;;
34775;SDS011;20989;52.566;13.346;2022-08-11T21:03:07;1.42;;;1.15;;
34775;SDS011;20989;52.566;13.346;2022-08-11T21:06:27;1.00;;;0.90;;
34775;SDS011;20989;52.566;13.346;2022-08-11T21:09:48;2.47;;;1.60;;
34775;SDS011;20989;52.566;13.346;2022-08-11T21:13:09;1.42;;;1.33;;
34775;SDS011;20989;52.566;13.346;2022-08-11T21:16:31;0.88;;;0.85;;
34775;SDS011;20989;52.566;13.346;2022-08-11T21:19:54;1.20;;;1.10;;
34775;SDS011;20989;52.566;13.346;2022-08-11T21:23:19;1.35;;;1.25;;
34775;SDS011;20989;52.566;13.346;2022-08-11T21:26:41;1.38;;;1.27;;
34775;SDS011;20989;52.566;13.346;2022-08-11T21:30:03;1.30;;;1.20;;
34775;SDS011;20989;52.566;13.346;2022-08-11T21:33:23;1.17;;;1.10;;
34775;SDS011;20989;52.566;13.346;2022-08-11T21:36:45;1.35;;;1.20;;
34775;SDS011;20989;52.566;13.346;2022-08-11T21:40:07;1.55;;;1.10;;
34775;SDS011;20989;52.566;13.346;2022-08-11T21:43:27;1.35;;;1.25;;
34775;SDS011;20989;52.566;13.346;2022-08-11T21:46:49;1.45;;;1.17;;
34775;SDS011;20989;52.566;13.346;2022-08-11T21:50:10;1.50;;;1.20;;
34775;SDS011;20989;52.566;13.346;2022-08-11T21:53:30;1.13;;;1.10;;
34775;SDS011;20989;52.566;13.346;2022-08-11T21:56:50;1.75;;;1.40;;
34775;SDS011;20989;52.566;13.346;2022-08-11T22:00:11;0.90;;;0.90;;
34775;SDS011;20989;52.566;13.346;2022-08-11T22:03:31;1.10;;;1.00;;
34775;SDS011;20989;52.566;13.346;2022-08-11T22:06:51;1.80;;;1.52;;
34775;SDS011;20989;52.566;13.346;2022-08-11T22:10:10;1.15;;;1.08;;
34775;SDS011;20989;52.566;13.346;2022-08-11T22:13:30;1.00;;;1.00;;
34775;SDS011;20989;52.566;13.346;2022-08-11T22:16:49;1.02;;;1.02;;
34775;SDS011;20989;52.566;13.346;2022-08-11T22:20:10;1.25;;;1.15;;
34775;SDS011;20989;52.566;13.346;2022-08-11T22:23:30;1.13;;;1.02;;
34775;SDS011;20989;52.566;13.346;2022-08-11T22:26:52;1.30;;;1.00;;
34775;SDS011;20989;52.566;13.346;2022-08-11T22:30:11;1.17;;;1.15;;
34775;SDS011;20989;52.566;13.346;2022-08-11T22:33:31;0.95;;;0.95;;
34775;SDS011;20989;52.566;13.346;2022-08-11T22:36:50;0.85;;;0.85;;
34775;SDS011;20989;52.566;13.346;2022-08-11T22:40:10;1.27;;;1.17;;
34775;SDS011;20989;52.566;13.346;2022-08-11T22:43:31;0.90;;;0.90;;